F/V Le Mirador — FPHO — position and weather

sailwx.info

Track history (hours):
 
Tides and Currents Weather Stations Pressure Air Temp Water Temp Dewpoint Dewpoint Depression Visibility Wind Speed Wind Dir Waves Ship Positions

F/V Le Mirador

Last reported at 2016-Feb-14 05:17 UTC. Time now 2016-Jul-23 15:06 UTC.
Position N 08°59' W 014°56'.
Warning: this ship's position is months out of date.

Length 19 m; draft 2.8 m.

Type: Fishing. MMSI: 227901000.

Date/timePositionNaut miles runAvg speedWind from/ knotsBaromVisibWave heightAir tempDewpointWater temp
2016-Feb-14 05:17N 08°59' W 014°56'96 9.6
2016-Feb-13 19:14N 10°04' W 016°08'197 9.1
2016-Feb-12 21:33N 13°12' W 017°07'9 9.3
2016-Feb-12 20:33N 13°21' W 017°08'10 9.3
2016-Feb-12 19:26N 13°31' W 017°09'8 9.3
2016-Feb-12 18:33N 13°39' W 017°10'9 9.1
2016-Feb-12 17:33N 13°48' W 017°12'9 9.2
2016-Feb-12 16:33N 13°57' W 017°14'9 9.4
2016-Feb-12 15:33N 14°06' W 017°16'22 9.2
2016-Feb-12 13:13N 14°27' W 017°20'6 9.0
2016-Feb-12 12:33N 14°33' W 017°21'8 8.2
2016-Feb-12 11:34N 14°41' W 017°25'1 1.0
2016-Feb-12 10:33N 14°41' W 017°26'0 0.0
2016-Feb-11 19:34N 14°41' W 017°26'1 0.6
2016-Feb-11 18:33N 14°41' W 017°25'0 0.0
2016-Feb-11 17:34N 14°41' W 017°25'1 0.6
2016-Feb-11 16:33N 14°41' W 017°26'0 0.0
2016-Feb-11 15:33N 14°41' W 017°26'0 0.0
2016-Feb-11 14:33N 14°41' W 017°26'0 0.0
2016-Feb-11 13:33N 14°41' W 017°26'0 0.0
2016-Feb-11 12:33N 14°41' W 017°26'0 0.0
2016-Feb-11 11:33N 14°41' W 017°26'0 0.0
2016-Feb-11 10:33N 14°41' W 017°26'0 0.0
2016-Feb-11 09:33N 14°41' W 017°26'  
2016-Feb-04 22:20N 36°42' W 009°60'8 8.8
2016-Feb-04 21:28N 36°50' W 009°59'9 9.0
2016-Feb-04 20:31N 36°58' W 009°57'9 9.0
2016-Feb-04 19:28N 37°08' W 009°54'12 9.2
2016-Feb-04 18:13N 37°19' W 009°52'7 9.0
2016-Feb-04 17:28N 37°26' W 009°51'10 9.6
2016-Feb-04 16:28N 37°35' W 009°48'9 9.0
2016-Feb-04 15:31N 37°43' W 009°47'10 9.2
2016-Feb-04 14:28N 37°53' W 009°45'9 9.2
2016-Feb-04 13:28N 38°02' W 009°43'12 8.9
2016-Feb-04 12:07N 38°14' W 009°41'5 8.0
2016-Feb-04 11:33N 38°18' W 009°40'9 9.2
2016-Feb-04 10:33N 38°27' W 009°38'9 9.2
2016-Feb-04 09:33N 38°37' W 009°38'9 9.0
2016-Feb-04 08:33N 38°46' W 009°37'9 9.3
2016-Feb-04 07:34N 38°55' W 009°38'9 9.3
2016-Feb-04 06:33N 39°04' W 009°37'10 9.5
2016-Feb-04 05:33N 39°14' W 009°37'  
Track history (hours):
 
Tides and Currents Weather Stations Pressure Air Temp Water Temp Dewpoint Dewpoint Depression Visibility Wind Speed Wind Dir Waves Ship Positions

F/V Le Mirador

Last reported at 2016-Feb-14 05:17 UTC. Time now 2016-Jul-23 15:06 UTC.
Position N 08°59' W 014°56'.
Warning: this ship's position is months out of date.

Length 19 m; draft 2.8 m.

Type: Fishing. MMSI: 227901000.

Date/timePositionNaut miles runAvg speedWind from/ knotsBaromVisibWave heightAir tempDewpointWater temp
2016-Feb-14 05:17N 08°59' W 014°56'96 9.6
2016-Feb-13 19:14N 10°04' W 016°08'197 9.1
2016-Feb-12 21:33N 13°12' W 017°07'9 9.3
2016-Feb-12 20:33N 13°21' W 017°08'10 9.3
2016-Feb-12 19:26N 13°31' W 017°09'8 9.3
2016-Feb-12 18:33N 13°39' W 017°10'9 9.1
2016-Feb-12 17:33N 13°48' W 017°12'9 9.2
2016-Feb-12 16:33N 13°57' W 017°14'9 9.4
2016-Feb-12 15:33N 14°06' W 017°16'22 9.2
2016-Feb-12 13:13N 14°27' W 017°20'6 9.0
2016-Feb-12 12:33N 14°33' W 017°21'8 8.2
2016-Feb-12 11:34N 14°41' W 017°25'1 1.0
2016-Feb-12 10:33N 14°41' W 017°26'0 0.0
2016-Feb-11 19:34N 14°41' W 017°26'1 0.6
2016-Feb-11 18:33N 14°41' W 017°25'0 0.0
2016-Feb-11 17:34N 14°41' W 017°25'1 0.6
2016-Feb-11 16:33N 14°41' W 017°26'0 0.0
2016-Feb-11 15:33N 14°41' W 017°26'0 0.0
2016-Feb-11 14:33N 14°41' W 017°26'0 0.0
2016-Feb-11 13:33N 14°41' W 017°26'0 0.0
2016-Feb-11 12:33N 14°41' W 017°26'0 0.0
2016-Feb-11 11:33N 14°41' W 017°26'0 0.0
2016-Feb-11 10:33N 14°41' W 017°26'0 0.0
2016-Feb-11 09:33N 14°41' W 017°26'  
2016-Feb-04 22:20N 36°42' W 009°60'8 8.8
2016-Feb-04 21:28N 36°50' W 009°59'9 9.0
2016-Feb-04 20:31N 36°58' W 009°57'9 9.0
2016-Feb-04 19:28N 37°08' W 009°54'12 9.2
2016-Feb-04 18:13N 37°19' W 009°52'7 9.0
2016-Feb-04 17:28N 37°26' W 009°51'10 9.6
2016-Feb-04 16:28N 37°35' W 009°48'9 9.0
2016-Feb-04 15:31N 37°43' W 009°47'10 9.2
2016-Feb-04 14:28N 37°53' W 009°45'9 9.2
2016-Feb-04 13:28N 38°02' W 009°43'12 8.9
2016-Feb-04 12:07N 38°14' W 009°41'5 8.0
2016-Feb-04 11:33N 38°18' W 009°40'9 9.2
2016-Feb-04 10:33N 38°27' W 009°38'9 9.2
2016-Feb-04 09:33N 38°37' W 009°38'9 9.0
2016-Feb-04 08:33N 38°46' W 009°37'9 9.3
2016-Feb-04 07:34N 38°55' W 009°38'9 9.3
2016-Feb-04 06:33N 39°04' W 009°37'10 9.5
2016-Feb-04 05:33N 39°14' W 009°37'  

Dump ship's entire track history